sensor_id;sensor_type;location;lat;lon;timestamp;pressure;altitude;pressure_sealevel;temperature;humidity
47710;BME280;33473;51.640;5.892;2023-02-18T00:07:57;102100;;;15.1;63.0
47710;BME280;33473;51.640;5.892;2023-02-18T00:21:17;102100;;;14.9;63.0
47710;BME280;33473;51.640;5.892;2023-02-18T00:34:37;102100;;;14.7;64.0
47710;BME280;33473;51.640;5.892;2023-02-18T00:47:56;102100;;;14.7;64.0
47710;BME280;33473;51.640;5.892;2023-02-18T01:01:16;102100;;;14.6;64.0
47710;BME280;33473;51.640;5.892;2023-02-18T01:14:36;102000;;;15.1;63.0
47710;BME280;33473;51.640;5.892;2023-02-18T01:27:55;102000;;;15.3;63.0
47710;BME280;33473;51.640;5.892;2023-02-18T01:41:15;102000;;;14.8;64.0
47710;BME280;33473;51.640;5.892;2023-02-18T01:54:35;102000;;;15.1;64.0
47710;BME280;33473;51.640;5.892;2023-02-18T02:07:54;102000;;;15.0;66.0
47710;BME280;33473;51.640;5.892;2023-02-18T02:21:14;102000;;;14.1;69.0
47710;BME280;33473;51.640;5.892;2023-02-18T02:34:34;102000;;;14.9;67.0
47710;BME280;33473;51.640;5.892;2023-02-18T02:47:54;102000;;;14.7;67.0
47710;BME280;33473;51.640;5.892;2023-02-18T03:01:16;101900;;;15.0;66.0
47710;BME280;33473;51.640;5.892;2023-02-18T03:14:35;101900;;;14.2;69.0
47710;BME280;33473;51.640;5.892;2023-02-18T03:27:55;101900;;;14.3;69.0
47710;BME280;33473;51.640;5.892;2023-02-18T03:41:15;101800;;;14.6;68.0
47710;BME280;33473;51.640;5.892;2023-02-18T03:54:35;101800;;;14.9;67.0
47710;BME280;33473;51.640;5.892;2023-02-18T04:07:55;101800;;;14.6;67.0
47710;BME280;33473;51.640;5.892;2023-02-18T04:21:14;101800;;;14.9;67.0
47710;BME280;33473;51.640;5.892;2023-02-18T04:34:34;101800;;;14.1;68.0
47710;BME280;33473;51.640;5.892;2023-02-18T04:47:54;101800;;;14.0;69.0
47710;BME280;33473;51.640;5.892;2023-02-18T05:01:13;101800;;;14.2;68.0
47710;BME280;33473;51.640;5.892;2023-02-18T05:14:33;101800;;;14.2;69.0
47710;BME280;33473;51.640;5.892;2023-02-18T05:27:53;101700;;;14.2;69.0
47710;BME280;33473;51.640;5.892;2023-02-18T05:41:13;101700;;;13.8;70.0
47710;BME280;33473;51.640;5.892;2023-02-18T05:54:32;101700;;;13.8;70.0
47710;BME280;33473;51.640;5.892;2023-02-18T06:07:52;101700;;;13.4;71.0
47710;BME280;33473;51.640;5.892;2023-02-18T06:21:12;101700;;;13.2;73.0
47710;BME280;33473;51.640;5.892;2023-02-18T06:34:32;101700;;;14.1;70.0
47710;BME280;33473;51.640;5.892;2023-02-18T06:47:51;101700;;;13.7;70.0
47710;BME280;33473;51.640;5.892;2023-02-18T07:01:11;101700;;;13.4;72.0
47710;BME280;33473;51.640;5.892;2023-02-18T07:14:31;101700;;;13.4;71.0
47710;BME280;33473;51.640;5.892;2023-02-18T07:27:51;101700;;;13.1;71.0
47710;BME280;33473;51.640;5.892;2023-02-18T07:41:10;101700;;;13.2;71.0
47710;BME280;33473;51.640;5.892;2023-02-18T07:54:30;101700;;;13.1;71.0
47710;BME280;33473;51.640;5.892;2023-02-18T08:07:50;101700;;;12.9;71.0
47710;BME280;33473;51.640;5.892;2023-02-18T08:21:09;101800;;;13.0;70.0
47710;BME280;33473;51.640;5.892;2023-02-18T08:34:29;101800;;;13.4;67.0
47710;BME280;33473;51.640;5.892;2023-02-18T08:47:49;101800;;;13.3;65.0
47710;BME280;33473;51.640;5.892;2023-02-18T09:01:09;101700;;;13.7;64.0
47710;BME280;33473;51.640;5.892;2023-02-18T09:14:28;101800;;;13.2;66.0
47710;BME280;33473;51.640;5.892;2023-02-18T09:27:48;101800;;;12.9;67.0
47710;BME280;33473;51.640;5.892;2023-02-18T09:41:08;101700;;;13.1;66.0
47710;BME280;33473;51.640;5.892;2023-02-18T09:54:27;101800;;;13.1;66.0
47710;BME280;33473;51.640;5.892;2023-02-18T10:07:47;101800;;;13.0;65.0
47710;BME280;33473;51.640;5.892;2023-02-18T10:21:07;101800;;;13.1;64.0
47710;BME280;33473;51.640;5.892;2023-02-18T10:34:26;101800;;;13.2;64.0
47710;BME280;33473;51.640;5.892;2023-02-18T10:47:46;101800;;;13.0;64.0
47710;BME280;33473;51.640;5.892;2023-02-18T11:01:06;101800;;;12.8;67.0
47710;BME280;33473;51.640;5.892;2023-02-18T11:14:25;101800;;;13.0;70.0
47710;BME280;33473;51.640;5.892;2023-02-18T11:27:45;101800;;;13.0;71.0
47710;BME280;33473;51.640;5.892;2023-02-18T11:41:05;101800;;;12.8;72.0
47710;BME280;33473;51.640;5.892;2023-02-18T11:54:24;101800;;;13.0;73.0
47710;BME280;33473;51.640;5.892;2023-02-18T12:07:44;101800;;;13.3;72.0
47710;BME280;33473;51.640;5.892;2023-02-18T12:21:04;101800;;;13.4;72.0
47710;BME280;33473;51.640;5.892;2023-02-18T12:34:23;101800;;;13.6;71.0
47710;BME280;33473;51.640;5.892;2023-02-18T12:47:43;101800;;;14.0;69.0
47710;BME280;33473;51.640;5.892;2023-02-18T13:01:03;101800;;;14.2;67.0
47710;BME280;33473;51.640;5.892;2023-02-18T13:14:22;101800;;;14.6;65.0
47710;BME280;33473;51.640;5.892;2023-02-18T13:27:42;101800;;;14.6;64.0
47710;BME280;33473;51.640;5.892;2023-02-18T13:41:02;101800;;;14.8;64.0
47710;BME280;33473;51.640;5.892;2023-02-18T13:54:21;101800;;;14.8;63.0
47710;BME280;33473;51.640;5.892;2023-02-18T14:07:41;101800;;;15.1;62.0
47710;BME280;33473;51.640;5.892;2023-02-18T14:21:01;101800;;;15.0;62.0
47710;BME280;33473;51.640;5.892;2023-02-18T14:34:20;101800;;;15.0;62.0
47710;BME280;33473;51.640;5.892;2023-02-18T14:47:40;101800;;;15.1;61.0
47710;BME280;33473;51.640;5.892;2023-02-18T15:01:00;101800;;;15.6;60.0
47710;BME280;33473;51.640;5.892;2023-02-18T15:14:19;101800;;;15.4;59.0
47710;BME280;33473;51.640;5.892;2023-02-18T15:27:39;101800;;;15.4;58.0
47710;BME280;33473;51.640;5.892;2023-02-18T15:40:59;101800;;;15.5;58.0
47710;BME280;33473;51.640;5.892;2023-02-18T15:54:19;101800;;;15.7;57.0
47710;BME280;33473;51.640;5.892;2023-02-18T16:07:38;101800;;;15.5;59.0
47710;BME280;33473;51.640;5.892;2023-02-18T16:20:58;101800;;;15.6;58.0
47710;BME280;33473;51.640;5.892;2023-02-18T16:34:18;101800;;;15.8;58.0
47710;BME280;33473;51.640;5.892;2023-02-18T16:47:37;101800;;;15.7;58.0
47710;BME280;33473;51.640;5.892;2023-02-18T17:00:57;101800;;;15.6;59.0
47710;BME280;33473;51.640;5.892;2023-02-18T17:14:17;101800;;;15.5;59.0
47710;BME280;33473;51.640;5.892;2023-02-18T17:27:36;101800;;;15.4;60.0
47710;BME280;33473;51.640;5.892;2023-02-18T17:40:56;101800;;;15.0;62.0
47710;BME280;33473;51.640;5.892;2023-02-18T17:54:16;101800;;;15.5;62.0
47710;BME280;33473;51.640;5.892;2023-02-18T18:07:36;101800;;;14.4;67.0
47710;BME280;33473;51.640;5.892;2023-02-18T18:20:55;101800;;;14.6;67.0
47710;BME280;33473;51.640;5.892;2023-02-18T18:34:15;101800;;;14.6;67.0
47710;BME280;33473;51.640;5.892;2023-02-18T18:47:35;101800;;;14.9;66.0
47710;BME280;33473;51.640;5.892;2023-02-18T19:00:54;101800;;;14.4;67.0
47710;BME280;33473;51.640;5.892;2023-02-18T19:14:14;101800;;;14.4;67.0
47710;BME280;33473;51.640;5.892;2023-02-18T19:27:34;101800;;;14.0;68.0
47710;BME280;33473;51.640;5.892;2023-02-18T19:40:53;101800;;;14.5;66.0
47710;BME280;33473;51.640;5.892;2023-02-18T19:54:13;101800;;;14.7;65.0
47710;BME280;33473;51.640;5.892;2023-02-18T20:07:33;101700;;;14.7;65.0
47710;BME280;33473;51.640;5.892;2023-02-18T20:20:53;101700;;;14.7;65.0
47710;BME280;33473;51.640;5.892;2023-02-18T20:34:12;101700;;;14.7;64.0
47710;BME280;33473;51.640;5.892;2023-02-18T20:47:32;101700;;;14.8;65.0
47710;BME280;33473;51.640;5.892;2023-02-18T21:00:52;101700;;;15.0;64.0
47710;BME280;33473;51.640;5.892;2023-02-18T21:14:11;101700;;;14.4;66.0
47710;BME280;33473;51.640;5.892;2023-02-18T21:27:31;101700;;;14.9;64.0
47710;BME280;33473;51.640;5.892;2023-02-18T21:40:51;101700;;;14.3;66.0
47710;BME280;33473;51.640;5.892;2023-02-18T21:54:10;101700;;;14.5;66.0
47710;BME280;33473;51.640;5.892;2023-02-18T22:07:30;101600;;;14.7;65.0
47710;BME280;33473;51.640;5.892;2023-02-18T22:20:50;101600;;;14.5;66.0
47710;BME280;33473;51.640;5.892;2023-02-18T22:34:10;101700;;;14.2;67.0
47710;BME280;33473;51.640;5.892;2023-02-18T22:47:29;101700;;;14.3;67.0
47710;BME280;33473;51.640;5.892;2023-02-18T23:00:49;101700;;;14.2;67.0
47710;BME280;33473;51.640;5.892;2023-02-18T23:14:09;101700;;;14.3;67.0
47710;BME280;33473;51.640;5.892;2023-02-18T23:27:29;101700;;;14.3;68.0
47710;BME280;33473;51.640;5.892;2023-02-18T23:40:48;101600;;;13.9;68.0
47710;BME280;33473;51.640;5.892;2023-02-18T23:54:08;101600;;;14.2;68.0
